Time;durP1;ratioP1;P1;durP2;ratioP2;P2;SDS_P1;SDS_P2;PMS_P1;PMS_P2;Temp;Humidity;BMP_temperature;BMP_pressure;BME280_temperature;BME280_humidity;BME280_pressure;Samples;Min_cycle;Max_cycle;Signal;HPM_P1;HPM_P2
2022/10/25 00:02:18;;;;;;;6.57;0.85;;;;;;;15.95;97.29;100290.91;4968182;28;20031;-69
2022/10/25 00:04:45;;;;;;;0.82;0.57;;;;;;;15.97;97.15;100294.00;4968492;28;20506;-69
2022/10/25 00:07:10;;;;;;;1.70;0.80;;;;;;;15.98;97.20;100281.19;4970038;28;20093;-70
2022/10/25 00:09:36;;;;;;;1.65;0.85;;;;;;;15.88;97.37;100290.97;4971543;28;20035;-69
2022/10/25 00:12:01;;;;;;;4.88;0.90;;;;;;;15.79;98.84;100287.94;4954387;28;20121;-70
2022/10/25 00:14:27;;;;;;;1.25;0.77;;;;;;;15.87;98.63;100289.41;4969204;28;20039;-70
2022/10/25 00:16:52;;;;;;;2.97;0.68;;;;;;;15.88;98.96;100288.25;4971225;28;20500;-70
2022/10/25 00:19:17;;;;;;;8.23;0.82;;;;;;;15.92;98.12;100282.78;4970070;28;20042;-70
2022/10/25 00:21:43;;;;;;;1.42;0.60;;;;;;;15.92;98.43;100289.00;4969197;28;20058;-69
2022/10/25 00:24:11;;;;;;;4.47;1.00;;;;;;;15.95;98.49;100288.19;4971895;28;20388;-70
2022/10/25 00:26:40;;;;;;;6.05;1.10;;;;;;;16.04;98.14;100296.69;4974067;28;20047;-70
2022/10/25 00:29:08;;;;;;;2.88;0.85;;;;;;;15.90;97.94;100285.91;4974106;28;20039;-70
2022/10/25 00:31:35;;;;;;;2.20;0.82;;;;;;;16.04;97.65;100291.25;4973326;28;20034;-69
2022/10/25 00:34:01;;;;;;;1.88;0.90;;;;;;;16.03;97.70;100286.97;4972554;28;20399;-69
2022/10/25 00:36:26;;;;;;;2.03;1.00;;;;;;;15.97;97.68;100285.84;4973539;28;20035;-69
2022/10/25 00:38:54;;;;;;;4.85;0.90;;;;;;;16.01;97.57;100288.53;4973523;28;20039;-71
2022/10/25 00:41:23;;;;;;;1.17;0.70;;;;;;;15.94;98.11;100289.38;4973970;28;20121;-70
2022/10/25 00:43:54;;;;;;;4.35;0.45;;;;;;;15.88;97.35;100282.81;4974868;28;20063;-70
2022/10/25 00:46:20;;;;;;;4.18;1.10;;;;;;;15.89;98.18;100284.34;4971061;28;20038;-70
2022/10/25 00:48:55;;;;;;;3.45;1.23;;;;;;;15.89;98.45;100280.88;4973885;28;20039;-70
2022/10/25 00:51:24;;;;;;;2.42;1.00;;;;;;;15.97;98.34;100277.69;4973744;28;20051;-70
2022/10/25 00:53:50;;;;;;;1.45;1.00;;;;;;;15.85;98.71;100280.88;4972591;28;20045;-69
2022/10/25 00:56:20;;;;;;;1.88;0.80;;;;;;;15.66;99.32;100281.41;4974131;28;20043;-69
2022/10/25 00:58:51;;;;;;;5.03;0.90;;;;;;;15.73;99.22;100277.88;4974252;28;20046;-69
2022/10/25 01:01:17;;;;;;;4.97;0.95;;;;;;;15.46;100.00;100285.03;4972622;28;20518;-70
2022/10/25 01:03:46;;;;;;;1.33;0.95;;;;;;;15.52;100.00;100289.66;4956674;28;20039;-70
2022/10/25 01:06:19;;;;;;;2.25;0.60;;;;;;;15.44;100.00;100293.59;4955742;28;20462;-70
2022/10/25 01:08:47;;;;;;;3.35;1.27;;;;;;;15.45;100.00;100297.81;4973322;28;20200;-70
2022/10/25 01:11:12;;;;;;;2.50;0.82;;;;;;;15.58;100.00;100292.72;4965981;28;20072;-70
2022/10/25 01:13:38;;;;;;;2.03;0.88;;;;;;;15.75;100.00;100286.41;4974484;28;20177;-69
2022/10/25 01:16:33;;;;;;;0.77;0.77;;;;;;;15.87;99.16;100294.09;4973075;28;20038;-70
2022/10/25 01:19:20;;;;;;;5.22;1.20;;;;;;;15.83;98.81;100296.06;4972048;28;20141;-70
2022/10/25 01:21:53;;;;;;;1.02;0.70;;;;;;;15.71;100.00;100283.72;4967347;28;20368;-69
2022/10/25 01:24:54;;;;;;;4.20;1.42;;;;;;;15.65;99.91;100288.03;4970797;28;20118;-69
2022/10/25 01:27:53;;;;;;;5.45;1.45;;;;;;;15.77;99.53;100290.28;4969707;28;20407;-70
2022/10/25 01:30:25;;;;;;;1.65;0.90;;;;;;;15.82;99.25;100298.00;4979942;28;21563;-70
2022/10/25 01:33:09;;;;;;;2.35;1.10;;;;;;;15.85;99.47;100294.47;4971423;28;20554;-70
2022/10/25 01:35:49;;;;;;;8.50;1.60;;;;;;;15.71;99.34;100291.88;4971122;28;20043;-70
2022/10/25 01:38:24;;;;;;;4.45;1.20;;;;;;;15.86;99.60;100292.53;4973589;28;20048;-70
2022/10/25 01:40:59;;;;;;;1.30;0.80;;;;;;;15.87;99.15;100294.09;4973821;28;20039;-70
2022/10/25 01:43:50;;;;;;;1.20;0.63;;;;;;;15.97;98.86;100298.66;4974229;28;20045;-69
2022/10/25 01:46:58;;;;;;;1.98;1.00;;;;;;;15.91;98.88;100301.03;4972693;28;20042;-69
2022/10/25 01:49:34;;;;;;;7.32;1.08;;;;;;;16.03;97.74;100292.41;4961056;28;20137;-69
2022/10/25 01:52:00;;;;;;;8.10;1.10;;;;;;;16.10;98.06;100286.91;4973863;28;20422;-69
2022/10/25 01:54:26;;;;;;;2.55;0.95;;;;;;;16.05;97.88;100294.72;4968462;28;20114;-70
2022/10/25 01:57:09;;;;;;;1.08;0.95;;;;;;;15.97;98.18;100298.66;4972847;28;20113;-69
2022/10/25 01:59:46;;;;;;;4.32;1.05;;;;;;;15.88;98.80;100288.25;4968541;28;20053;-69
2022/10/25 02:02:21;;;;;;;4.60;1.02;;;;;;;15.99;99.15;100296.31;4972069;28;20071;-69
2022/10/25 02:05:05;;;;;;;3.08;0.98;;;;;;;16.05;98.72;100295.50;4971757;28;20118;-69
2022/10/25 02:07:41;;;;;;;4.90;0.80;;;;;;;16.05;98.27;100289.28;4962728;28;20042;-71
2022/10/25 02:10:06;;;;;;;4.03;0.77;;;;;;;15.94;98.89;100294.81;4971941;28;20035;-70
2022/10/25 02:12:54;;;;;;;1.92;1.08;;;;;;;16.07;98.67;100297.81;4973299;28;20093;-70
2022/10/25 02:15:31;;;;;;;1.60;0.82;;;;;;;16.10;98.16;100295.06;4971248;28;20051;-69
2022/10/25 02:18:03;;;;;;;2.03;1.00;;;;;;;16.10;98.02;100302.44;4953483;28;20031;-69
2022/10/25 02:20:33;;;;;;;3.50;1.20;;;;;;;16.15;98.03;100307.44;4970367;28;20031;-70
2022/10/25 02:23:02;;;;;;;4.53;1.08;;;;;;;16.10;98.30;100300.50;4970506;28;20057;-69
2022/10/25 02:25:31;;;;;;;5.45;1.15;;;;;;;16.13;98.02;100307.84;4969710;28;20050;-69
2022/10/25 02:27:57;;;;;;;1.60;0.85;;;;;;;16.14;98.10;100303.94;4969955;28;20046;-69
2022/10/25 02:30:23;;;;;;;1.90;0.70;;;;;;;16.09;98.15;100306.31;4972983;28;20034;-69
2022/10/25 02:32:49;;;;;;;5.88;0.80;;;;;;;16.18;98.49;100310.13;4973415;28;20481;-70
2022/10/25 02:35:17;;;;;;;2.60;0.98;;;;;;;16.16;98.12;100309.75;4971776;28;20038;-70
2022/10/25 02:37:43;;;;;;;5.00;1.60;;;;;;;16.10;98.82;100308.63;4969780;28;20027;-70
2022/10/25 02:40:09;;;;;;;3.42;1.15;;;;;;;16.10;99.25;100307.88;4969280;28;20550;-69
2022/10/25 02:42:35;;;;;;;2.10;1.25;;;;;;;16.06;99.29;100313.34;4968204;28;20049;-69
2022/10/25 02:45:02;;;;;;;2.35;1.05;;;;;;;15.94;100.00;100307.59;4971045;28;20037;-69
2022/10/25 02:47:28;;;;;;;6.68;1.40;;;;;;;16.04;99.32;100310.25;4966435;28;20034;-70
2022/10/25 02:49:53;;;;;;;3.30;1.42;;;;;;;15.81;100.00;100311.97;4970375;28;20039;-69
2022/10/25 02:52:21;;;;;;;3.83;1.20;;;;;;;15.91;99.86;100305.72;4972303;28;20475;-69
2022/10/25 02:54:46;;;;;;;6.72;1.30;;;;;;;16.04;100.00;100309.47;4970552;28;20031;-69
2022/10/25 02:57:12;;;;;;;4.10;1.15;;;;;;;16.10;99.70;100311.34;4972140;28;20448;-70
2022/10/25 02:59:37;;;;;;;10.13;1.52;;;;;;;16.16;99.66;100315.19;4971902;28;20088;-69
2022/10/25 03:02:03;;;;;;;3.88;1.00;;;;;;;16.08;99.28;100319.16;4966642;28;20050;-70
2022/10/25 03:04:28;;;;;;;1.17;1.02;;;;;;;16.13;99.63;100317.94;4970161;28;20491;-70
2022/10/25 03:06:56;;;;;;;3.03;1.48;;;;;;;16.17;99.09;100321.41;4963969;28;20495;-70
2022/10/25 03:09:22;;;;;;;3.53;1.40;;;;;;;16.13;98.89;100326.09;4972224;28;20115;-69
2022/10/25 03:11:48;;;;;;;6.40;2.22;;;;;;;16.12;99.26;100332.72;4968293;28;20022;-69
2022/10/25 03:14:14;;;;;;;1.83;1.05;;;;;;;16.23;99.40;100326.03;4971100;28;20410;-70
2022/10/25 03:16:39;;;;;;;2.88;1.33;;;;;;;16.12;99.38;100328.03;4971746;28;20030;-70
2022/10/25 03:19:05;;;;;;;5.82;1.70;;;;;;;16.17;99.33;100335.78;4970051;28;20050;-69
2022/10/25 03:21:30;;;;;;;3.53;1.25;;;;;;;16.25;99.01;100336.50;4961701;28;20081;-69
2022/10/25 03:23:55;;;;;;;3.70;1.48;;;;;;;16.21;99.25;100341.19;4972500;28;20043;-69
2022/10/25 03:26:21;;;;;;;3.00;1.60;;;;;;;16.26;99.09;100343.44;4969550;28;20035;-70
2022/10/25 03:28:46;;;;;;;3.33;2.10;;;;;;;16.12;100.00;100338.16;4970262;28;20035;-69
2022/10/25 03:31:14;;;;;;;4.53;1.58;;;;;;;16.23;99.69;100346.97;4968899;28;20070;-71
2022/10/25 03:33:39;;;;;;;5.10;1.60;;;;;;;16.27;99.35;100340.34;4964724;28;20043;-70
2022/10/25 03:36:06;;;;;;;4.47;1.77;;;;;;;16.34;98.77;100344.94;4951492;28;20050;-69
2022/10/25 03:38:31;;;;;;;3.83;1.80;;;;;;;16.32;98.80;100341.84;4952447;28;20046;-71
2022/10/25 03:40:57;;;;;;;4.32;2.03;;;;;;;16.37;98.70;100351.53;4967574;28;20031;-69
2022/10/25 03:43:22;;;;;;;5.05;2.15;;;;;;;16.24;99.11;100345.78;4958042;28;20537;-69
2022/10/25 03:45:47;;;;;;;4.38;2.25;;;;;;;16.32;98.85;100352.72;4950464;29;20027;-70
2022/10/25 03:48:13;;;;;;;5.32;2.30;;;;;;;16.34;98.64;100344.19;4952957;28;20106;-69
2022/10/25 03:50:38;;;;;;;6.18;1.98;;;;;;;16.31;98.57;100353.13;4953247;28;20491;-69
2022/10/25 03:53:05;;;;;;;8.13;2.28;;;;;;;16.32;98.09;100349.25;4953001;28;20483;-70
2022/10/25 03:55:31;;;;;;;4.78;2.28;;;;;;;16.25;98.64;100348.13;4965942;28;20406;-69
2022/10/25 03:57:57;;;;;;;3.85;2.13;;;;;;;16.37;98.11;100356.97;4953133;28;20039;-69
2022/10/25 04:00:22;;;;;;;5.60;2.35;;;;;;;16.21;98.58;100368.34;4951394;28;20396;-69
2022/10/25 04:02:53;;;;;;;3.13;1.80;;;;;;;16.30;98.17;100365.94;4979960;28;20419;-69
2022/10/25 04:05:18;;;;;;;4.60;1.58;;;;;;;16.41;98.24;100371.31;4950814;28;20031;-69
2022/10/25 04:07:43;;;;;;;4.75;2.10;;;;;;;16.46;97.73;100373.59;4951662;29;20496;-69
2022/10/25 04:10:09;;;;;;;7.40;2.47;;;;;;;16.44;97.43;100375.94;4952525;28;20053;-69
2022/10/25 04:12:34;;;;;;;7.10;2.33;;;;;;;16.29;97.07;100375.28;4964092;28;20047;-70
2022/10/25 04:14:59;;;;;;;6.68;2.38;;;;;;;16.34;97.19;100371.38;4950122;28;20118;-69
2022/10/25 04:17:25;;;;;;;7.85;2.70;;;;;;;16.28;97.59;100369.06;4963953;28;20038;-69
2022/10/25 04:19:50;;;;;;;5.43;3.03;;;;;;;16.25;97.38;100379.97;4996808;23;20038;-67
2022/10/25 04:22:16;;;;;;;3.50;2.10;;;;;;;16.21;97.54;100374.56;4985964;28;20093;-67
2022/10/25 04:24:41;;;;;;;7.07;2.80;;;;;;;16.35;97.41;100383.78;4989708;28;20066;-67
2022/10/25 04:27:06;;;;;;;3.83;2.05;;;;;;;16.21;96.80;100374.56;4990669;28;20026;-68
2022/10/25 04:29:32;;;;;;;8.10;2.30;;;;;;;16.31;97.02;100374.88;4983349;28;20117;-67
2022/10/25 04:31:57;;;;;;;8.93;2.45;;;;;;;16.36;96.05;100377.16;4991369;28;20129;-67
2022/10/25 04:34:22;;;;;;;3.60;2.33;;;;;;;16.37;95.02;100370.56;5009447;28;20053;-67
2022/10/25 04:36:48;;;;;;;7.85;2.00;;;;;;;16.34;94.97;100357.78;5010563;28;20081;-67
2022/10/25 04:39:13;;;;;;;5.63;2.40;;;;;;;16.33;94.38;100375.25;5025558;28;20034;-67
2022/10/25 04:41:39;;;;;;;6.70;2.35;;;;;;;16.39;94.85;100371.72;5007124;28;20481;-67
2022/10/25 04:44:04;;;;;;;8.40;2.78;;;;;;;16.38;94.46;100372.88;5024935;28;20038;-67
2022/10/25 04:46:50;;;;;;;4.38;2.40;;;;;;;16.45;94.41;100375.56;5008926;28;20046;-69
2022/10/25 04:49:16;;;;;;;5.60;2.30;;;;;;;16.40;94.02;100373.25;4930431;29;20186;-67
2022/10/25 04:51:41;;;;;;;5.97;2.25;;;;;;;16.48;94.37;100377.50;4947900;29;20118;-67
2022/10/25 04:54:07;;;;;;;6.18;2.38;;;;;;;16.43;94.04;100385.28;4939738;29;20504;-67
2022/10/25 04:56:32;;;;;;;5.90;2.13;;;;;;;16.50;94.01;100379.81;4924914;29;20054;-67
2022/10/25 04:58:58;;;;;;;9.75;2.22;;;;;;;16.55;93.64;100376.66;4940087;29;20039;-67
2022/10/25 05:01:24;;;;;;;10.95;2.83;;;;;;;16.50;94.02;100385.22;4941828;28;20071;-67
2022/10/25 05:03:49;;;;;;;3.88;2.00;;;;;;;16.52;93.34;100388.31;4926440;29;20492;-68
2022/10/25 05:06:21;;;;;;;3.55;1.90;;;;;;;16.40;94.01;100396.94;4933146;29;20047;-68
2022/10/25 05:08:48;;;;;;;5.72;2.47;;;;;;;16.43;93.71;100388.00;4934243;29;20231;-67
2022/10/25 05:11:15;;;;;;;4.57;2.25;;;;;;;16.42;94.31;100389.16;4937777;29;20044;-67
2022/10/25 05:13:41;;;;;;;3.55;2.13;;;;;;;16.40;93.77;100396.94;4948127;29;20090;-68
2022/10/25 05:16:11;;;;;;;7.72;2.78;;;;;;;16.28;94.42;100393.53;4947628;29;20639;-67
2022/10/25 05:18:36;;;;;;;7.38;2.88;;;;;;;16.32;94.28;100398.94;4934524;28;20554;-67
2022/10/25 05:21:04;;;;;;;4.20;1.80;;;;;;;16.34;94.28;100393.13;4953073;28;20117;-67
2022/10/25 05:23:31;;;;;;;3.78;2.00;;;;;;;16.26;93.79;100382.28;4956741;28;20327;-67
2022/10/25 05:26:20;;;;;;;17.10;2.70;;;;;;;16.19;93.92;100393.22;4968720;28;20525;-65
2022/10/25 05:28:47;;;;;;;4.43;2.20;;;;;;;16.18;93.98;100388.94;5005717;28;20048;-65
2022/10/25 05:31:21;;;;;;;7.53;2.30;;;;;;;16.07;94.67;100393.66;5014293;28;20641;-65
2022/10/25 05:33:55;;;;;;;5.93;2.50;;;;;;;16.09;94.47;100394.06;4996709;28;20113;-65
2022/10/25 05:36:21;;;;;;;4.38;2.03;;;;;;;16.13;94.65;100388.59;5009398;28;20034;-65
2022/10/25 05:38:46;;;;;;;5.25;2.40;;;;;;;16.12;94.59;100392.50;5004271;28;20072;-65
2022/10/25 05:41:15;;;;;;;5.15;2.35;;;;;;;16.06;94.81;100396.78;5001612;28;20116;-65
2022/10/25 05:43:41;;;;;;;4.82;2.33;;;;;;;16.10;95.11;100400.25;5005146;28;20041;-65
2022/10/25 05:46:10;;;;;;;6.00;2.28;;;;;;;16.07;94.99;100401.03;5006641;28;20029;-65
2022/10/25 05:48:36;;;;;;;4.93;2.15;;;;;;;16.09;94.54;100398.69;5014106;28;20042;-65
2022/10/25 05:51:09;;;;;;;5.50;2.53;;;;;;;16.02;94.80;100402.25;5011220;28;20487;-65
2022/10/25 05:53:34;;;;;;;6.65;2.70;;;;;;;15.95;95.26;100399.56;5008187;28;20033;-65
2022/10/25 05:56:00;;;;;;;6.97;2.42;;;;;;;15.97;95.39;100412.75;5004455;28;20479;-65
2022/10/25 05:58:25;;;;;;;4.07;2.30;;;;;;;16.03;95.28;100409.22;5004136;28;20030;-65
2022/10/25 06:00:50;;;;;;;4.32;2.20;;;;;;;15.92;95.54;100411.22;5011821;28;20041;-64
2022/10/25 06:03:16;;;;;;;5.25;2.30;;;;;;;15.95;96.00;100415.84;5011742;28;20026;-65
2022/10/25 06:05:41;;;;;;;6.05;2.00;;;;;;;16.00;96.00;100420.09;5034094;28;20038;-65
2022/10/25 06:08:07;;;;;;;9.48;2.40;;;;;;;15.98;95.49;100425.94;5015300;28;20042;-65
2022/10/25 06:10:32;;;;;;;4.25;2.33;;;;;;;16.02;95.75;100426.69;5011086;28;20022;-65
2022/10/25 06:12:58;;;;;;;3.83;1.92;;;;;;;15.95;95.96;100420.53;5013921;28;20034;-65
2022/10/25 06:15:23;;;;;;;8.15;2.20;;;;;;;16.02;95.78;100431.34;4996556;28;20064;-65
2022/10/25 06:17:48;;;;;;;6.00;2.60;;;;;;;15.88;96.47;100426.78;5007868;28;20038;-65
2022/10/25 06:20:14;;;;;;;6.72;2.00;;;;;;;15.87;96.91;100432.59;5005830;28;20068;-65
2022/10/25 06:22:39;;;;;;;4.70;2.35;;;;;;;15.92;96.94;100443.81;5016335;28;20474;-65
2022/10/25 06:25:06;;;;;;;5.63;2.40;;;;;;;15.91;97.13;100439.53;5018312;28;20061;-67
2022/10/25 06:27:32;;;;;;;3.75;2.20;;;;;;;15.85;97.10;100440.38;5006962;28;20033;-65
2022/10/25 06:29:57;;;;;;;2.45;1.75;;;;;;;15.90;97.08;100448.88;5011240;28;20561;-65
2022/10/25 06:32:23;;;;;;;7.47;2.15;;;;;;;15.87;97.65;100452.38;5014869;28;20171;-65
2022/10/25 06:34:53;;;;;;;8.32;2.83;;;;;;;16.02;97.66;100443.00;5021556;28;20050;-65
2022/10/25 06:37:19;;;;;;;4.13;2.30;;;;;;;16.10;96.78;100447.19;5011760;28;20034;-65
2022/10/25 06:39:44;;;;;;;6.72;2.50;;;;;;;16.20;96.38;100453.78;5005854;28;20037;-67
2022/10/25 06:42:11;;;;;;;3.88;2.00;;;;;;;16.15;95.61;100452.25;5014135;28;20050;-67
2022/10/25 06:44:38;;;;;;;5.40;1.98;;;;;;;16.31;95.46;100459.91;5024032;28;20030;-68
2022/10/25 06:47:03;;;;;;;3.03;1.98;;;;;;;16.26;95.73;100465.75;5011865;28;20125;-68
2022/10/25 06:49:29;;;;;;;8.48;2.20;;;;;;;16.32;95.96;100466.88;5014731;28;20025;-65
2022/10/25 06:51:54;;;;;;;7.03;2.28;;;;;;;16.24;96.17;100465.38;5017563;28;20042;-65
2022/10/25 06:54:20;;;;;;;4.38;2.20;;;;;;;16.11;97.23;100470.50;5009996;28;20034;-65
2022/10/25 06:56:45;;;;;;;3.03;1.88;;;;;;;16.15;97.75;100479.41;4994741;28;20510;-65
2022/10/25 06:59:11;;;;;;;8.10;2.05;;;;;;;16.15;98.12;100475.91;4994616;28;20038;-65
2022/10/25 07:01:36;;;;;;;7.55;2.00;;;;;;;15.96;99.23;100477.19;4995152;28;20030;-65
2022/10/25 07:04:02;;;;;;;6.43;2.10;;;;;;;16.00;99.86;100488.81;4993227;28;20092;-65
2022/10/25 07:06:34;;;;;;;4.28;2.42;;;;;;;15.97;100.00;100478.72;5001982;28;20119;-65
2022/10/25 07:09:00;;;;;;;9.70;2.58;;;;;;;15.98;100.00;100485.72;5015069;28;20413;-65
2022/10/25 07:11:29;;;;;;;5.55;2.30;;;;;;;16.14;100.00;100480.56;5013300;28;20041;-65
2022/10/25 07:13:57;;;;;;;5.68;2.30;;;;;;;16.15;100.00;100495.72;5014462;28;20368;-65
2022/10/25 07:16:23;;;;;;;4.10;2.10;;;;;;;16.05;100.00;100499.25;5003740;28;20069;-65
2022/10/25 07:18:49;;;;;;;5.50;2.53;;;;;;;16.20;99.60;100500.72;5020443;28;20030;-65
2022/10/25 07:21:21;;;;;;;5.25;2.00;;;;;;;16.31;99.35;100502.63;5015436;28;20113;-65
2022/10/25 07:23:48;;;;;;;8.07;2.25;;;;;;;16.31;99.06;100506.13;5014176;28;20083;-65
2022/10/25 07:26:16;;;;;;;5.28;2.25;;;;;;;16.30;99.11;100501.84;5019013;28;20080;-65
2022/10/25 07:28:44;;;;;;;4.90;2.15;;;;;;;16.29;99.80;100500.31;5013520;28;20096;-65
2022/10/25 07:31:15;;;;;;;4.93;2.53;;;;;;;16.39;99.18;100504.13;5012675;28;20537;-65
2022/10/25 07:33:41;;;;;;;7.10;3.00;;;;;;;16.36;99.82;100507.63;5011358;28;20399;-65
2022/10/25 07:36:09;;;;;;;7.72;2.63;;;;;;;16.40;99.69;100511.88;5001229;28;20030;-65
2022/10/25 07:38:35;;;;;;;5.25;2.55;;;;;;;16.44;98.70;100509.13;4995539;28;20030;-65
2022/10/25 07:41:01;;;;;;;5.10;2.55;;;;;;;16.41;98.97;100518.88;5012630;28;20034;-68
2022/10/25 07:43:30;;;;;;;5.32;2.42;;;;;;;16.23;100.00;100512.75;5012360;28;20414;-68
2022/10/25 07:45:56;;;;;;;3.75;2.13;;;;;;;16.25;100.00;100522.06;5021802;28;20040;-68
2022/10/25 07:48:22;;;;;;;5.47;2.42;;;;;;;16.36;100.00;100523.94;5010723;28;20022;-68
2022/10/25 07:50:48;;;;;;;5.13;2.33;;;;;;;16.40;100.00;100530.91;5012353;28;20026;-65
2022/10/25 07:53:13;;;;;;;6.75;2.53;;;;;;;16.43;100.00;100530.13;4990835;28;20037;-65
2022/10/25 07:55:39;;;;;;;4.28;2.17;;;;;;;16.54;100.00;100530.09;5007129;28;20103;-65
2022/10/25 07:58:06;;;;;;;7.13;2.47;;;;;;;16.56;99.54;100525.81;5004110;28;20153;-65
2022/10/25 08:00:34;;;;;;;5.15;2.35;;;;;;;16.55;100.00;100537.09;5002897;28;20636;-65
2022/10/25 08:03:00;;;;;;;5.82;2.70;;;;;;;16.61;100.00;100532.75;5008960;28;20374;-65
2022/10/25 08:05:25;;;;;;;4.93;2.42;;;;;;;16.67;99.32;100531.16;5006902;28;20462;-65
2022/10/25 08:07:51;;;;;;;9.52;3.42;;;;;;;16.66;99.17;100545.94;5004391;28;20030;-65
2022/10/25 08:10:20;;;;;;;5.50;2.53;;;;;;;16.71;99.20;100549.00;5003265;28;20080;-65
2022/10/25 08:12:48;;;;;;;5.93;1.90;;;;;;;16.80;99.35;100548.56;5007378;28;20061;-65
2022/10/25 08:15:14;;;;;;;11.73;2.67;;;;;;;16.86;98.57;100545.03;5001856;28;20022;-65
2022/10/25 08:17:40;;;;;;;4.85;2.47;;;;;;;16.91;98.68;100543.84;5003234;28;20073;-65
2022/10/25 08:20:05;;;;;;;7.50;2.90;;;;;;;16.82;98.24;100551.69;5002189;28;20064;-65
2022/10/25 08:22:31;;;;;;;9.63;2.50;;;;;;;16.89;98.82;100557.06;5002608;28;20092;-65
2022/10/25 08:24:56;;;;;;;7.95;3.40;;;;;;;16.94;97.88;100559.34;5001536;28;20446;-65
2022/10/25 08:27:21;;;;;;;9.10;2.58;;;;;;;16.91;98.56;100557.44;4998157;28;20779;-66
2022/10/25 08:29:47;;;;;;;5.85;2.90;;;;;;;16.80;98.60;100557.50;4997393;28;20041;-65
2022/10/25 08:32:13;;;;;;;10.15;2.95;;;;;;;16.86;98.98;100564.06;5004777;28;20396;-66
2022/10/25 08:34:38;;;;;;;4.80;2.55;;;;;;;16.86;98.91;100568.75;5003467;28;20463;-66
2022/10/25 08:37:04;;;;;;;9.60;2.83;;;;;;;16.88;99.00;100563.66;5000205;28;20057;-66
2022/10/25 08:39:29;;;;;;;6.32;2.70;;;;;;;16.94;98.36;100562.06;5022962;28;20040;-65
2022/10/25 08:41:57;;;;;;;6.78;3.10;;;;;;;16.93;98.57;100565.97;5005015;28;20037;-66
2022/10/25 08:44:43;;;;;;;5.65;2.80;;;;;;;17.01;98.60;100572.91;5006104;28;20149;-65
2022/10/25 08:47:12;;;;;;;6.90;3.70;;;;;;;16.97;98.54;100589.28;5026592;28;20049;-65
2022/10/25 08:49:57;;;;;;;8.00;2.88;;;;;;;16.95;98.38;100585.38;5004982;28;20096;-65
2022/10/25 08:52:31;;;;;;;7.03;3.55;;;;;;;16.87;98.76;100590.09;5009460;28;20034;-65
2022/10/25 08:54:59;;;;;;;7.45;2.90;;;;;;;16.80;99.08;100592.09;5004839;28;20093;-65
2022/10/25 08:57:31;;;;;;;6.85;3.50;;;;;;;16.98;97.82;100584.59;5005828;28;20077;-65
2022/10/25 09:00:05;;;;;;;5.03;2.95;;;;;;;16.88;98.00;100585.41;5007800;28;20029;-66
2022/10/25 09:02:49;;;;;;;7.85;3.78;;;;;;;16.95;98.09;100588.13;5006591;28;20054;-65
2022/10/25 09:05:32;;;;;;;10.80;2.92;;;;;;;17.12;97.49;100601.59;5004274;28;20046;-66
2022/10/25 09:08:20;;;;;;;3.92;2.40;;;;;;;17.17;96.91;100598.44;5011153;28;20086;-66
2022/10/25 09:11:15;;;;;;;10.27;2.65;;;;;;;17.28;95.94;100603.03;5010366;28;20021;-66
2022/10/25 09:13:54;;;;;;;5.85;2.60;;;;;;;17.32;95.03;100611.94;5011525;28;20044;-66
2022/10/25 09:16:41;;;;;;;7.38;2.90;;;;;;;17.39;94.77;100599.06;5023328;28;20482;-65
2022/10/25 09:19:17;;;;;;;8.25;2.45;;;;;;;17.47;94.16;100618.81;5012090;28;20041;-65
2022/10/25 09:21:55;;;;;;;4.65;2.20;;;;;;;17.56;93.33;100616.44;5028390;28;20404;-66
2022/10/25 09:24:51;;;;;;;6.45;1.88;;;;;;;17.51;92.84;100611.44;5007301;28;20105;-65
2022/10/25 09:27:34;;;;;;;4.05;2.10;;;;;;;17.32;92.92;100615.44;5026298;28;20037;-66
2022/10/25 09:30:01;;;;;;;5.15;2.10;;;;;;;17.33;93.27;100619.72;5005670;28;20189;-66
2022/10/25 09:32:36;;;;;;;4.00;1.85;;;;;;;17.40;92.90;100627.81;5025027;28;20394;-65
2022/10/25 09:35:05;;;;;;;5.18;2.40;;;;;;;17.40;91.88;100625.09;5008982;28;20116;-66
2022/10/25 09:37:49;;;;;;;6.00;2.22;;;;;;;17.38;92.34;100626.69;5007514;28;20082;-66
2022/10/25 09:40:20;;;;;;;4.32;2.03;;;;;;;17.36;92.99;100627.09;5022779;28;20466;-66
2022/10/25 09:42:51;;;;;;;3.08;1.92;;;;;;;17.48;92.44;100632.06;5013001;28;20034;-66
2022/10/25 09:45:26;;;;;;;6.93;2.90;;;;;;;17.53;91.81;100639.03;5009327;28;20030;-65
2022/10/25 09:48:03;;;;;;;5.18;2.03;;;;;;;17.64;91.35;100634.25;5013638;28;20034;-65
2022/10/25 09:50:42;;;;;;;4.22;1.83;;;;;;;17.76;90.76;100631.81;5012920;28;20038;-65
2022/10/25 09:53:16;;;;;;;5.00;1.95;;;;;;;17.94;90.89;100637.84;5011825;28;20029;-66
2022/10/25 09:55:50;;;;;;;6.78;2.00;;;;;;;18.06;89.66;100638.53;5004639;28;20038;-65
2022/10/25 09:58:24;;;;;;;2.58;1.83;;;;;;;18.04;88.96;100633.47;5013057;28;20498;-66
2022/10/25 10:00:52;;;;;;;3.65;1.58;;;;;;;18.14;88.27;100637.28;5012734;28;20062;-66
2022/10/25 10:03:19;;;;;;;1.70;1.40;;;;;;;18.15;87.58;100639.59;5012842;28;20486;-66
2022/10/25 10:05:58;;;;;;;3.38;2.17;;;;;;;18.11;87.43;100647.06;4995653;28;20030;-65
2022/10/25 10:08:24;;;;;;;3.50;1.40;;;;;;;17.97;86.88;100647.97;4993346;28;20046;-66
2022/10/25 10:10:52;;;;;;;1.77;1.20;;;;;;;17.80;87.23;100648.91;4993072;28;20046;-66
2022/10/25 10:13:30;;;;;;;3.22;1.83;;;;;;;17.83;87.72;100648.09;4993506;28;20062;-66
2022/10/25 10:15:58;;;;;;;3.42;1.65;;;;;;;17.86;87.63;100644.59;4991595;28;20108;-66
2022/10/25 10:18:25;;;;;;;4.43;1.80;;;;;;;17.91;87.07;100641.41;5011019;28;20516;-66
2022/10/25 10:21:08;;;;;;;2.30;1.70;;;;;;;18.01;87.86;100651.44;5020482;23;20053;-70
2022/10/25 10:23:42;;;;;;;5.35;1.77;;;;;;;18.02;87.54;100660.41;5009132;28;20048;-69
2022/10/25 10:26:13;;;;;;;3.80;1.30;;;;;;;18.08;87.55;100660.72;5011954;28;20908;-70
2022/10/25 10:28:44;;;;;;;3.13;1.70;;;;;;;18.22;86.72;100668.72;5008940;28;20499;-70
2022/10/25 10:31:10;;;;;;;3.92;1.83;;;;;;;18.30;86.62;100662.81;4992469;28;20045;-70
2022/10/25 10:33:37;;;;;;;3.17;1.98;;;;;;;18.28;86.62;100667.09;4992256;28;20071;-70
2022/10/25 10:36:26;;;;;;;4.22;1.90;;;;;;;18.42;85.98;100669.69;4991679;28;20049;-70
2022/10/25 10:38:52;;;;;;;4.30;1.70;;;;;;;18.61;85.70;100666.38;4992268;28;20479;-70
2022/10/25 10:41:27;;;;;;;2.38;1.50;;;;;;;18.85;85.23;100668.78;4991596;28;20030;-70
2022/10/25 10:44:11;;;;;;;5.40;1.83;;;;;;;19.10;82.85;100667.66;4991800;28;20089;-71
2022/10/25 10:46:44;;;;;;;3.50;1.88;;;;;;;19.04;82.48;100670.09;4992462;28;20093;-69
2022/10/25 10:49:10;;;;;;;1.73;1.30;;;;;;;19.04;81.78;100672.03;4972184;28;20085;-70
2022/10/25 10:51:39;;;;;;;2.35;1.40;;;;;;;19.00;81.33;100666.63;4992558;28;20037;-70
2022/10/25 10:54:27;;;;;;;3.80;1.38;;;;;;;18.64;82.35;100676.47;4991445;28;20101;-71
2022/10/25 10:57:26;;;;;;;6.72;1.42;;;;;;;18.41;83.23;100676.31;4987503;28;20044;-70
2022/10/25 10:59:55;;;;;;;3.67;1.88;;;;;;;18.39;83.85;100671.25;4986385;28;20105;-70
2022/10/25 11:02:26;;;;;;;3.72;1.45;;;;;;;18.59;84.06;100676.91;4992220;28;20069;-70
2022/10/25 11:04:54;;;;;;;1.45;1.27;;;;;;;18.68;83.83;100677.97;4987649;28;20114;-70
2022/10/25 11:07:32;;;;;;;2.42;1.40;;;;;;;18.78;83.26;100673.56;4999473;28;20026;-70
2022/10/25 11:10:18;;;;;;;5.68;2.20;;;;;;;18.97;82.61;100683.81;4989861;28;20108;-71
2022/10/25 11:12:44;;;;;;;2.85;1.92;;;;;;;19.08;82.50;100676.28;4991120;28;20049;-70
2022/10/25 11:15:12;;;;;;;9.25;1.77;;;;;;;18.98;81.48;100682.66;4989802;28;20113;-70
2022/10/25 11:17:53;;;;;;;2.53;1.60;;;;;;;18.93;81.85;100686.59;4994307;28;20066;-70
2022/10/25 11:20:53;;;;;;;1.83;1.10;;;;;;;19.07;82.20;100684.88;4988897;28;20042;-70
2022/10/25 11:23:35;;;;;;;1.67;1.10;;;;;;;19.09;81.27;100698.88;4971570;28;20081;-71
2022/10/25 11:26:19;;;;;;;2.75;0.95;;;;;;;19.19;79.84;100695.22;5003046;28;20034;-70
2022/10/25 11:28:53;;;;;;;3.10;1.13;;;;;;;19.19;79.03;100695.22;5002723;28;20042;-72
2022/10/25 11:31:39;;;;;;;5.72;1.65;;;;;;;19.21;78.57;100704.56;4989046;28;20053;-71
2022/10/25 11:34:40;;;;;;;3.65;1.48;;;;;;;19.24;79.40;100702.97;4988254;28;20045;-71
2022/10/25 11:37:20;;;;;;;2.00;1.42;;;;;;;19.24;78.49;100711.91;4948980;28;20046;-71
2022/10/25 11:40:05;;;;;;;5.65;1.65;;;;;;;19.26;78.31;100709.56;4988063;28;20545;-71